Etusivu
METAR-TAF:

METAR-TAF

Lentoasemat :

Sabadell, Espanja

Leveyspiiri: 41-31N, Pituuspiiri: 002-06E, korkeus merenpinnasta: 250 m

Tämänhetkinen sää

Tämä raportti tehtiin 40 minuuttia sitten, kello 03.00 UTC
Tuuli 1 kn eri suunnista
Lämpötila 8°C
Kosteus 81%
Ilmanpaine 1022 hPa
Näkyvyys 10 km tai enemmän

METAR: LELL 190300Z AUTO VRB01KT 9999 SCT039/// 08/05 Q1022

Aika: 04:40 (03:40 UTC)

Sääennuste

Tämä raportti tehtiin 1 tunti ja 40 minuuttia sitten, kello 02.00 UTC
Ennuste voimassa 19. päivästä klo 03 UTC - 20. päivään klo 03 UTC
Tuuli 3 kn eri suunnista
Näkyvyys 10 km tai enemmän
Muutamia pilviä 4000 ft:n korkeudessa

TAF: LELL 190200Z 1903/2003 VRB03KT 9999 FEW040 TX16/1913Z TN05/1906Z

Säähavainnot ja -ennusteet yli 4000 lentoasemalta (METAR- ja TAF-raportit).

Käytössä olevat sääasemat on merkitty karttaan keltaisilla ja punaisilla pisteillä.

Aseta hiiri pisteen päälle nähdäksesi sääaseman nimen.

Klikkaa sitten nähdäksesi säähavainnot ja -ennusteet.

Kartan vaihtaminen: klikkaa mustalla rastilla varustettuja vihreitä pisteitä, niin voit zoomata sisään; viivalla varustettua vihreää pistettä, niin voit zoomata ulos tai vihreitä nuolia, niin pääset viereisille kartoille.


METAR-TAF: